sensor_id;sensor_type;location;lat;lon;timestamp;pressure;altitude;pressure_sealevel;temperature;humidity
77450;BME280;66536;53.150;18.172;2023-06-04T00:02:10;101965.13;;;9.43;54.62
77450;BME280;66536;53.150;18.172;2023-06-04T00:04:37;101963.70;;;9.40;54.83
77450;BME280;66536;53.150;18.172;2023-06-04T00:07:04;101967.16;;;9.38;54.94
77450;BME280;66536;53.150;18.172;2023-06-04T00:09:31;101965.30;;;9.37;55.05
77450;BME280;66536;53.150;18.172;2023-06-04T00:11:57;101961.19;;;9.33;55.10
77450;BME280;66536;53.150;18.172;2023-06-04T00:14:24;101959.34;;;9.31;55.13
77450;BME280;66536;53.150;18.172;2023-06-04T00:16:51;101959.71;;;9.30;54.98
77450;BME280;66536;53.150;18.172;2023-06-04T00:19:17;101957.38;;;9.27;55.18
77450;BME280;66536;53.150;18.172;2023-06-04T00:21:45;101959.73;;;9.25;55.29
77450;BME280;66536;53.150;18.172;2023-06-04T00:24:12;101952.59;;;9.22;55.46
77450;BME280;66536;53.150;18.172;2023-06-04T00:26:39;101956.70;;;9.19;55.53
77450;BME280;66536;53.150;18.172;2023-06-04T00:29:06;101953.54;;;9.17;55.69
77450;BME280;66536;53.150;18.172;2023-06-04T00:31:33;101952.56;;;9.13;55.88
77450;BME280;66536;53.150;18.172;2023-06-04T00:33:59;101956.75;;;9.10;55.92
77450;BME280;66536;53.150;18.172;2023-06-04T00:36:26;101953.79;;;9.08;55.94
77450;BME280;66536;53.150;18.172;2023-06-04T00:38:53;101948.59;;;9.05;55.98
77450;BME280;66536;53.150;18.172;2023-06-04T00:41:19;101947.38;;;9.02;56.08
77450;BME280;66536;53.150;18.172;2023-06-04T00:43:46;101946.89;;;8.98;56.16
77450;BME280;66536;53.150;18.172;2023-06-04T00:46:24;101945.48;;;8.95;56.36
77450;BME280;66536;53.150;18.172;2023-06-04T00:48:52;101942.85;;;8.93;56.52
77450;BME280;66536;53.150;18.172;2023-06-04T00:51:20;101945.10;;;8.91;56.57
77450;BME280;66536;53.150;18.172;2023-06-04T00:53:49;101944.63;;;8.89;56.81
77450;BME280;66536;53.150;18.172;2023-06-04T00:56:17;101944.44;;;8.88;56.94
77450;BME280;66536;53.150;18.172;2023-06-04T00:58:45;101945.76;;;8.86;56.85
77450;BME280;66536;53.150;18.172;2023-06-04T01:01:23;101945.99;;;8.84;57.05
77450;BME280;66536;53.150;18.172;2023-06-04T01:03:54;101945.41;;;8.82;57.23
77450;BME280;66536;53.150;18.172;2023-06-04T01:06:39;101941.67;;;8.80;57.41
77450;BME280;66536;53.150;18.172;2023-06-04T01:09:06;101939.39;;;8.77;57.48
77450;BME280;66536;53.150;18.172;2023-06-04T01:11:34;101940.68;;;8.75;57.76
77450;BME280;66536;53.150;18.172;2023-06-04T01:14:03;101938.59;;;8.72;57.87
77450;BME280;66536;53.150;18.172;2023-06-04T01:16:35;101936.77;;;8.70;57.89
77450;BME280;66536;53.150;18.172;2023-06-04T01:19:11;101937.01;;;8.66;58.16
77450;BME280;66536;53.150;18.172;2023-06-04T01:21:50;101939.02;;;8.62;58.47
77450;BME280;66536;53.150;18.172;2023-06-04T01:24:21;101941.95;;;8.58;58.62
77450;BME280;66536;53.150;18.172;2023-06-04T01:26:51;101941.52;;;8.54;58.86
77450;BME280;66536;53.150;18.172;2023-06-04T01:29:22;101945.08;;;8.50;59.03
77450;BME280;66536;53.150;18.172;2023-06-04T01:31:52;101946.55;;;8.46;59.28
77450;BME280;66536;53.150;18.172;2023-06-04T01:34:20;101945.82;;;8.41;59.26
77450;BME280;66536;53.150;18.172;2023-06-04T01:36:47;101950.09;;;8.37;59.31
77450;BME280;66536;53.150;18.172;2023-06-04T01:39:14;101947.27;;;8.33;59.40
77450;BME280;66536;53.150;18.172;2023-06-04T01:41:40;101947.65;;;8.29;59.46
77450;BME280;66536;53.150;18.172;2023-06-04T01:44:07;101946.00;;;8.27;59.60
77450;BME280;66536;53.150;18.172;2023-06-04T01:46:33;101947.41;;;8.25;59.70
77450;BME280;66536;53.150;18.172;2023-06-04T01:49:00;101948.65;;;8.23;59.67
77450;BME280;66536;53.150;18.172;2023-06-04T01:51:27;101948.70;;;8.21;59.66
77450;BME280;66536;53.150;18.172;2023-06-04T01:53:53;101947.26;;;8.18;59.90
77450;BME280;66536;53.150;18.172;2023-06-04T01:56:20;101947.73;;;8.15;60.02
77450;BME280;66536;53.150;18.172;2023-06-04T01:58:47;101942.63;;;8.11;60.13
77450;BME280;66536;53.150;18.172;2023-06-04T02:01:14;101945.34;;;8.08;60.21
77450;BME280;66536;53.150;18.172;2023-06-04T02:03:44;101945.27;;;8.06;60.30
77450;BME280;66536;53.150;18.172;2023-06-04T02:06:11;101942.17;;;8.02;60.53
77450;BME280;66536;53.150;18.172;2023-06-04T02:08:38;101943.65;;;8.00;60.60
77450;BME280;66536;53.150;18.172;2023-06-04T02:11:06;101944.05;;;7.98;60.85
77450;BME280;66536;53.150;18.172;2023-06-04T02:13:34;101949.16;;;7.95;60.87
77450;BME280;66536;53.150;18.172;2023-06-04T02:16:02;101947.73;;;7.92;60.97
77450;BME280;66536;53.150;18.172;2023-06-04T02:18:29;101945.29;;;7.89;61.53
77450;BME280;66536;53.150;18.172;2023-06-04T02:20:56;101945.05;;;7.86;61.95
77450;BME280;66536;53.150;18.172;2023-06-04T02:23:24;101944.16;;;7.84;62.09
77450;BME280;66536;53.150;18.172;2023-06-04T02:25:51;101945.12;;;7.81;62.31
77450;BME280;66536;53.150;18.172;2023-06-04T02:28:17;101945.46;;;7.79;62.66
77450;BME280;66536;53.150;18.172;2023-06-04T02:30:44;101946.58;;;7.78;62.66
77450;BME280;66536;53.150;18.172;2023-06-04T02:33:13;101950.06;;;7.78;62.69
77450;BME280;66536;53.150;18.172;2023-06-04T02:35:40;101946.54;;;7.77;62.77
77450;BME280;66536;53.150;18.172;2023-06-04T02:38:07;101951.67;;;7.77;62.77
77450;BME280;66536;53.150;18.172;2023-06-04T02:40:34;101954.41;;;7.78;63.00
77450;BME280;66536;53.150;18.172;2023-06-04T02:43:00;101955.89;;;7.78;63.01
77450;BME280;66536;53.150;18.172;2023-06-04T02:45:27;101950.77;;;7.79;62.93
77450;BME280;66536;53.150;18.172;2023-06-04T02:47:55;101958.82;;;7.82;62.84
77450;BME280;66536;53.150;18.172;2023-06-04T02:50:22;101957.27;;;7.83;62.90
77450;BME280;66536;53.150;18.172;2023-06-04T02:52:48;101959.61;;;7.87;62.88
77450;BME280;66536;53.150;18.172;2023-06-04T02:55:15;101955.55;;;7.90;62.88
77450;BME280;66536;53.150;18.172;2023-06-04T02:57:42;101954.69;;;7.93;62.84
77450;BME280;66536;53.150;18.172;2023-06-04T03:00:11;101950.63;;;7.96;62.82
77450;BME280;66536;53.150;18.172;2023-06-04T03:02:42;101947.70;;;7.97;62.80
77450;BME280;66536;53.150;18.172;2023-06-04T03:05:11;101944.96;;;7.99;62.77
77450;BME280;66536;53.150;18.172;2023-06-04T03:07:40;101942.14;;;8.01;62.83
77450;BME280;66536;53.150;18.172;2023-06-04T03:10:10;101939.40;;;8.03;62.89
77450;BME280;66536;53.150;18.172;2023-06-04T03:12:37;101937.05;;;8.05;62.94
77450;BME280;66536;53.150;18.172;2023-06-04T03:15:05;101943.48;;;8.10;63.04
77450;BME280;66536;53.150;18.172;2023-06-04T03:17:31;101943.80;;;8.15;63.07
77450;BME280;66536;53.150;18.172;2023-06-04T03:19:58;101950.80;;;8.20;63.09
77450;BME280;66536;53.150;18.172;2023-06-04T03:22:25;101949.77;;;8.27;63.06
77450;BME280;66536;53.150;18.172;2023-06-04T03:24:52;101949.65;;;8.35;63.04
77450;BME280;66536;53.150;18.172;2023-06-04T03:27:19;101954.71;;;8.44;63.01
77450;BME280;66536;53.150;18.172;2023-06-04T03:29:46;101951.54;;;8.53;63.02
77450;BME280;66536;53.150;18.172;2023-06-04T03:32:17;101950.73;;;8.61;63.04
77450;BME280;66536;53.150;18.172;2023-06-04T03:34:44;101951.33;;;8.72;62.95
77450;BME280;66536;53.150;18.172;2023-06-04T03:37:11;101952.05;;;8.83;63.00
77450;BME280;66536;53.150;18.172;2023-06-04T03:39:38;101951.20;;;8.94;62.79
77450;BME280;66536;53.150;18.172;2023-06-04T03:42:06;101950.80;;;9.04;62.55
77450;BME280;66536;53.150;18.172;2023-06-04T03:44:33;101949.52;;;9.14;62.49
77450;BME280;66536;53.150;18.172;2023-06-04T03:47:00;101946.84;;;9.23;62.34
77450;BME280;66536;53.150;18.172;2023-06-04T03:49:27;101945.60;;;9.29;62.25
77450;BME280;66536;53.150;18.172;2023-06-04T03:51:53;101945.85;;;9.36;62.14
77450;BME280;66536;53.150;18.172;2023-06-04T03:54:21;101944.25;;;9.43;61.93
77450;BME280;66536;53.150;18.172;2023-06-04T03:56:49;101942.42;;;9.49;61.81
77450;BME280;66536;53.150;18.172;2023-06-04T03:59:17;101946.37;;;9.55;61.88
77450;BME280;66536;53.150;18.172;2023-06-04T04:01:44;101944.35;;;9.61;61.80
77450;BME280;66536;53.150;18.172;2023-06-04T04:04:10;101949.23;;;9.66;61.76
77450;BME280;66536;53.150;18.172;2023-06-04T04:06:37;101946.41;;;9.73;61.66
77450;BME280;66536;53.150;18.172;2023-06-04T04:09:05;101945.89;;;9.79;61.73
77450;BME280;66536;53.150;18.172;2023-06-04T04:11:32;101944.16;;;9.85;62.15
77450;BME280;66536;53.150;18.172;2023-06-04T04:13:59;101946.60;;;9.93;62.36
77450;BME280;66536;53.150;18.172;2023-06-04T04:16:28;101947.84;;;10.01;62.33
77450;BME280;66536;53.150;18.172;2023-06-04T04:18:54;101943.11;;;10.11;62.46
77450;BME280;66536;53.150;18.172;2023-06-04T04:21:22;101943.04;;;10.23;62.24
77450;BME280;66536;53.150;18.172;2023-06-04T04:23:49;101944.48;;;10.34;62.09
77450;BME280;66536;53.150;18.172;2023-06-04T04:26:19;101941.46;;;10.45;62.06
77450;BME280;66536;53.150;18.172;2023-06-04T04:28:48;101938.52;;;10.56;61.71
77450;BME280;66536;53.150;18.172;2023-06-04T04:31:14;101937.42;;;10.65;61.07
77450;BME280;66536;53.150;18.172;2023-06-04T04:33:42;101938.39;;;10.74;60.37
77450;BME280;66536;53.150;18.172;2023-06-04T04:36:11;101938.98;;;10.82;59.76
77450;BME280;66536;53.150;18.172;2023-06-04T04:38:40;101938.16;;;10.89;59.16
77450;BME280;66536;53.150;18.172;2023-06-04T04:41:07;101936.75;;;10.94;58.65
77450;BME280;66536;53.150;18.172;2023-06-04T04:43:36;101933.50;;;11.02;58.17
77450;BME280;66536;53.150;18.172;2023-06-04T04:46:14;101936.20;;;11.09;57.87
77450;BME280;66536;53.150;18.172;2023-06-04T04:48:41;101934.58;;;11.18;57.75
77450;BME280;66536;53.150;18.172;2023-06-04T04:51:09;101931.01;;;11.25;57.53
77450;BME280;66536;53.150;18.172;2023-06-04T04:53:36;101929.95;;;11.32;57.25
77450;BME280;66536;53.150;18.172;2023-06-04T04:56:03;101930.07;;;11.38;56.84
77450;BME280;66536;53.150;18.172;2023-06-04T04:58:30;101936.19;;;11.46;56.94
77450;BME280;66536;53.150;18.172;2023-06-04T05:00:57;101936.45;;;11.54;56.30
77450;BME280;66536;53.150;18.172;2023-06-04T05:03:24;101938.31;;;11.63;56.08
77450;BME280;66536;53.150;18.172;2023-06-04T05:05:51;101936.84;;;11.71;55.81
77450;BME280;66536;53.150;18.172;2023-06-04T05:08:19;101942.23;;;11.81;55.46
77450;BME280;66536;53.150;18.172;2023-06-04T05:10:46;101941.37;;;11.91;55.29
77450;BME280;66536;53.150;18.172;2023-06-04T05:13:13;101944.42;;;12.00;54.82
77450;BME280;66536;53.150;18.172;2023-06-04T05:15:45;101943.91;;;12.08;54.48
77450;BME280;66536;53.150;18.172;2023-06-04T05:18:15;101947.13;;;12.16;54.22
77450;BME280;66536;53.150;18.172;2023-06-04T05:20:43;101952.89;;;12.25;54.03
77450;BME280;66536;53.150;18.172;2023-06-04T05:23:10;101951.11;;;12.35;53.95
77450;BME280;66536;53.150;18.172;2023-06-04T05:25:39;101955.91;;;12.46;53.71
77450;BME280;66536;53.150;18.172;2023-06-04T05:28:07;101952.57;;;12.56;53.53
77450;BME280;66536;53.150;18.172;2023-06-04T05:30:34;101951.32;;;12.66;53.33
77450;BME280;66536;53.150;18.172;2023-06-04T05:33:00;101949.59;;;12.74;52.84
77450;BME280;66536;53.150;18.172;2023-06-04T05:35:28;101954.48;;;12.82;52.51
77450;BME280;66536;53.150;18.172;2023-06-04T05:37:55;101950.04;;;12.92;52.50
77450;BME280;66536;53.150;18.172;2023-06-04T05:40:23;101953.95;;;13.03;52.39
77450;BME280;66536;53.150;18.172;2023-06-04T05:42:50;101957.20;;;13.14;51.87
77450;BME280;66536;53.150;18.172;2023-06-04T05:45:17;101956.73;;;13.26;51.99
77450;BME280;66536;53.150;18.172;2023-06-04T05:47:44;101962.59;;;13.37;51.57
77450;BME280;66536;53.150;18.172;2023-06-04T05:50:11;101962.73;;;13.49;51.38
77450;BME280;66536;53.150;18.172;2023-06-04T05:52:38;101963.65;;;13.60;51.26
77450;BME280;66536;53.150;18.172;2023-06-04T05:55:08;101964.48;;;13.72;50.95
77450;BME280;66536;53.150;18.172;2023-06-04T05:57:35;101971.63;;;13.83;50.91
77450;BME280;66536;53.150;18.172;2023-06-04T06:00:03;101975.84;;;13.96;50.76
77450;BME280;66536;53.150;18.172;2023-06-04T06:02:40;101971.34;;;14.07;50.52
77450;BME280;66536;53.150;18.172;2023-06-04T06:05:11;101971.35;;;14.18;50.54
77450;BME280;66536;53.150;18.172;2023-06-04T06:07:37;101971.27;;;14.29;50.50
77450;BME280;66536;53.150;18.172;2023-06-04T06:10:04;101974.42;;;14.39;50.49
77450;BME280;66536;53.150;18.172;2023-06-04T06:12:33;101974.70;;;14.54;50.12
77450;BME280;66536;53.150;18.172;2023-06-04T06:14:59;101977.04;;;14.69;49.81
77450;BME280;66536;53.150;18.172;2023-06-04T06:17:27;101974.83;;;14.84;49.39
77450;BME280;66536;53.150;18.172;2023-06-04T06:19:55;101974.80;;;14.97;49.08
77450;BME280;66536;53.150;18.172;2023-06-04T06:22:22;101978.55;;;15.10;48.48
77450;BME280;66536;53.150;18.172;2023-06-04T06:24:50;101980.84;;;15.25;48.13
77450;BME280;66536;53.150;18.172;2023-06-04T06:27:17;101976.37;;;15.40;47.72
77450;BME280;66536;53.150;18.172;2023-06-04T06:29:44;101972.82;;;15.57;47.33
77450;BME280;66536;53.150;18.172;2023-06-04T06:32:11;101971.81;;;15.74;46.77
77450;BME280;66536;53.150;18.172;2023-06-04T06:34:38;101976.42;;;15.91;46.36
77450;BME280;66536;53.150;18.172;2023-06-04T06:37:06;101978.34;;;16.07;45.92
77450;BME280;66536;53.150;18.172;2023-06-04T06:39:32;101976.55;;;16.23;45.41
77450;BME280;66536;53.150;18.172;2023-06-04T06:41:59;101974.45;;;16.37;45.17
77450;BME280;66536;53.150;18.172;2023-06-04T06:44:30;101981.54;;;16.50;45.17
77450;BME280;66536;53.150;18.172;2023-06-04T06:46:57;101981.09;;;16.60;44.85
77450;BME280;66536;53.150;18.172;2023-06-04T06:49:24;101980.82;;;16.69;44.42
77450;BME280;66536;53.150;18.172;2023-06-04T06:51:51;101980.50;;;16.81;44.04
77450;BME280;66536;53.150;18.172;2023-06-04T06:54:18;101981.22;;;16.96;43.76
77450;BME280;66536;53.150;18.172;2023-06-04T06:56:48;101977.69;;;17.11;43.49
77450;BME280;66536;53.150;18.172;2023-06-04T06:59:16;101974.65;;;17.23;42.89
77450;BME280;66536;53.150;18.172;2023-06-04T07:01:43;101978.62;;;17.32;42.40
77450;BME280;66536;53.150;18.172;2023-06-04T07:04:10;101977.27;;;17.46;42.08
77450;BME280;66536;53.150;18.172;2023-06-04T07:06:36;101976.00;;;17.61;41.51
77450;BME280;66536;53.150;18.172;2023-06-04T07:09:03;101972.45;;;17.74;41.09
77450;BME280;66536;53.150;18.172;2023-06-04T07:11:32;101969.13;;;17.88;40.93
77450;BME280;66536;53.150;18.172;2023-06-04T07:13:59;101968.64;;;18.03;40.21
77450;BME280;66536;53.150;18.172;2023-06-04T07:16:26;101968.95;;;18.17;39.60
77450;BME280;66536;53.150;18.172;2023-06-04T07:18:53;101972.20;;;18.32;38.93
77450;BME280;66536;53.150;18.172;2023-06-04T07:21:20;101968.27;;;18.44;37.76
77450;BME280;66536;53.150;18.172;2023-06-04T07:23:50;101971.16;;;18.53;37.42
77450;BME280;66536;53.150;18.172;2023-06-04T07:26:17;101970.57;;;18.59;37.16
77450;BME280;66536;53.150;18.172;2023-06-04T07:28:44;101968.16;;;18.70;37.24
77450;BME280;66536;53.150;18.172;2023-06-04T07:31:15;101969.64;;;18.85;36.86
77450;BME280;66536;53.150;18.172;2023-06-04T07:33:43;101966.33;;;19.00;36.04
77450;BME280;66536;53.150;18.172;2023-06-04T07:36:12;101969.21;;;19.11;34.70
77450;BME280;66536;53.150;18.172;2023-06-04T07:38:40;101967.24;;;19.15;34.23
77450;BME280;66536;53.150;18.172;2023-06-04T07:41:07;101963.27;;;19.19;33.12
77450;BME280;66536;53.150;18.172;2023-06-04T07:43:34;101966.25;;;19.20;32.99
77450;BME280;66536;53.150;18.172;2023-06-04T07:46:03;101961.59;;;19.24;32.95
77450;BME280;66536;53.150;18.172;2023-06-04T07:48:30;101962.77;;;19.26;32.90
77450;BME280;66536;53.150;18.172;2023-06-04T07:50:58;101961.64;;;19.31;33.08
77450;BME280;66536;53.150;18.172;2023-06-04T07:53:27;101962.02;;;19.45;33.00
77450;BME280;66536;53.150;18.172;2023-06-04T07:55:54;101960.23;;;19.63;32.86
77450;BME280;66536;53.150;18.172;2023-06-04T07:58:21;101956.52;;;19.83;32.41
77450;BME280;66536;53.150;18.172;2023-06-04T08:00:49;101956.83;;;19.98;31.76
77450;BME280;66536;53.150;18.172;2023-06-04T08:03:16;101956.52;;;20.01;31.70
77450;BME280;66536;53.150;18.172;2023-06-04T08:05:42;101958.17;;;20.09;31.23
77450;BME280;66536;53.150;18.172;2023-06-04T08:08:09;101954.21;;;20.17;30.59
77450;BME280;66536;53.150;18.172;2023-06-04T08:10:36;101949.89;;;20.27;30.45
77450;BME280;66536;53.150;18.172;2023-06-04T08:13:02;101947.39;;;20.39;29.94
77450;BME280;66536;53.150;18.172;2023-06-04T08:15:36;101948.48;;;20.44;29.58
77450;BME280;66536;53.150;18.172;2023-06-04T08:18:03;101948.50;;;20.46;29.89
77450;BME280;66536;53.150;18.172;2023-06-04T08:20:29;101954.52;;;20.51;29.70
77450;BME280;66536;53.150;18.172;2023-06-04T08:22:56;101951.16;;;20.58;29.41
77450;BME280;66536;53.150;18.172;2023-06-04T08:25:23;101952.10;;;20.61;28.78
77450;BME280;66536;53.150;18.172;2023-06-04T08:27:49;101954.48;;;20.66;29.08
77450;BME280;66536;53.150;18.172;2023-06-04T08:30:16;101948.55;;;20.77;28.26
77450;BME280;66536;53.150;18.172;2023-06-04T08:32:43;101944.24;;;20.75;27.51
77450;BME280;66536;53.150;18.172;2023-06-04T08:35:10;101945.91;;;20.71;28.03
77450;BME280;66536;53.150;18.172;2023-06-04T08:37:37;101947.48;;;20.81;28.12
77450;BME280;66536;53.150;18.172;2023-06-04T08:40:04;101944.96;;;21.00;28.02
77450;BME280;66536;53.150;18.172;2023-06-04T08:42:38;101944.00;;;21.15;27.68
77450;BME280;66536;53.150;18.172;2023-06-04T08:45:10;101938.38;;;21.29;26.98
77450;BME280;66536;53.150;18.172;2023-06-04T08:47:49;101938.83;;;21.23;26.54
77450;BME280;66536;53.150;18.172;2023-06-04T08:50:17;101941.44;;;21.25;26.86
77450;BME280;66536;53.150;18.172;2023-06-04T08:52:44;101945.35;;;21.36;26.69
77450;BME280;66536;53.150;18.172;2023-06-04T08:55:13;101955.40;;;21.49;26.68
77450;BME280;66536;53.150;18.172;2023-06-04T08:57:41;101946.77;;;21.64;26.34
77450;BME280;66536;53.150;18.172;2023-06-04T09:00:08;101944.12;;;21.77;26.24
77450;BME280;66536;53.150;18.172;2023-06-04T09:02:36;101941.80;;;21.86;26.05
77450;BME280;66536;53.150;18.172;2023-06-04T09:05:05;101941.06;;;21.92;26.15
77450;BME280;66536;53.150;18.172;2023-06-04T09:07:36;101941.60;;;21.93;25.91
77450;BME280;66536;53.150;18.172;2023-06-04T09:10:07;101940.19;;;21.96;25.54
77450;BME280;66536;53.150;18.172;2023-06-04T09:12:36;101944.02;;;22.05;25.42
77450;BME280;66536;53.150;18.172;2023-06-04T09:15:04;101942.38;;;22.17;25.38
77450;BME280;66536;53.150;18.172;2023-06-04T09:17:30;101945.60;;;22.27;25.44
77450;BME280;66536;53.150;18.172;2023-06-04T09:19:57;101943.41;;;22.35;25.10
77450;BME280;66536;53.150;18.172;2023-06-04T09:22:32;101941.05;;;22.36;24.84
77450;BME280;66536;53.150;18.172;2023-06-04T09:25:00;101937.73;;;22.37;24.65
77450;BME280;66536;53.150;18.172;2023-06-04T09:27:27;101930.62;;;22.42;24.52
77450;BME280;66536;53.150;18.172;2023-06-04T09:29:56;101930.14;;;22.40;24.32
77450;BME280;66536;53.150;18.172;2023-06-04T09:32:24;101929.00;;;22.34;24.23
77450;BME280;66536;53.150;18.172;2023-06-04T09:34:53;101932.58;;;22.34;24.13
77450;BME280;66536;53.150;18.172;2023-06-04T09:37:20;101930.69;;;22.27;24.02
77450;BME280;66536;53.150;18.172;2023-06-04T09:39:53;101928.14;;;22.18;23.82
77450;BME280;66536;53.150;18.172;2023-06-04T09:42:22;101928.66;;;22.10;24.16
77450;BME280;66536;53.150;18.172;2023-06-04T09:44:49;101927.60;;;22.09;23.94
77450;BME280;66536;53.150;18.172;2023-06-04T09:47:16;101923.73;;;22.22;24.06
77450;BME280;66536;53.150;18.172;2023-06-04T09:49:44;101926.36;;;22.34;24.33
77450;BME280;66536;53.150;18.172;2023-06-04T09:52:12;101925.57;;;22.43;24.21
77450;BME280;66536;53.150;18.172;2023-06-04T09:54:40;101926.54;;;22.57;24.23
77450;BME280;66536;53.150;18.172;2023-06-04T09:57:16;101923.45;;;22.71;24.25
77450;BME280;66536;53.150;18.172;2023-06-04T09:59:46;101918.23;;;22.82;24.06
77450;BME280;66536;53.150;18.172;2023-06-04T10:02:13;101919.02;;;22.95;24.09
77450;BME280;66536;53.150;18.172;2023-06-04T10:04:44;101916.20;;;23.03;24.12
77450;BME280;66536;53.150;18.172;2023-06-04T10:07:14;101919.73;;;23.00;23.92
77450;BME280;66536;53.150;18.172;2023-06-04T10:09:43;101919.84;;;22.99;23.89
77450;BME280;66536;53.150;18.172;2023-06-04T10:12:14;101916.41;;;23.03;23.49
77450;BME280;66536;53.150;18.172;2023-06-04T10:14:54;101918.00;;;23.04;23.84
77450;BME280;66536;53.150;18.172;2023-06-04T10:17:23;101915.45;;;23.12;23.57
77450;BME280;66536;53.150;18.172;2023-06-04T10:19:52;101917.75;;;23.23;23.99
77450;BME280;66536;53.150;18.172;2023-06-04T10:22:21;101916.45;;;23.35;23.77
77450;BME280;66536;53.150;18.172;2023-06-04T10:24:48;101911.29;;;23.46;23.58
77450;BME280;66536;53.150;18.172;2023-06-04T10:27:17;101914.43;;;23.57;23.53
77450;BME280;66536;53.150;18.172;2023-06-04T10:29:45;101917.55;;;23.67;23.34
77450;BME280;66536;53.150;18.172;2023-06-04T10:32:12;101916.41;;;23.66;22.80
77450;BME280;66536;53.150;18.172;2023-06-04T10:34:39;101918.98;;;23.62;22.94
77450;BME280;66536;53.150;18.172;2023-06-04T10:37:06;101919.14;;;23.59;22.98
77450;BME280;66536;53.150;18.172;2023-06-04T10:39:33;101915.60;;;23.60;22.80
77450;BME280;66536;53.150;18.172;2023-06-04T10:42:01;101913.21;;;23.58;22.58
77450;BME280;66536;53.150;18.172;2023-06-04T10:44:30;101912.23;;;23.60;22.53
77450;BME280;66536;53.150;18.172;2023-06-04T10:46:57;101909.77;;;23.56;22.66
77450;BME280;66536;53.150;18.172;2023-06-04T10:49:28;101903.27;;;23.60;22.62
77450;BME280;66536;53.150;18.172;2023-06-04T10:51:55;101902.29;;;23.64;22.59
77450;BME280;66536;53.150;18.172;2023-06-04T10:54:25;101902.27;;;23.68;22.50
77450;BME280;66536;53.150;18.172;2023-06-04T10:56:52;101900.06;;;23.76;22.71
77450;BME280;66536;53.150;18.172;2023-06-04T10:59:21;101900.55;;;23.85;22.32
77450;BME280;66536;53.150;18.172;2023-06-04T11:01:48;101897.98;;;23.98;22.41
77450;BME280;66536;53.150;18.172;2023-06-04T11:04:25;101897.67;;;24.10;22.33
77450;BME280;66536;53.150;18.172;2023-06-04T11:07:04;101897.54;;;24.23;22.22
77450;BME280;66536;53.150;18.172;2023-06-04T11:09:48;101896.95;;;24.31;22.23
77450;BME280;66536;53.150;18.172;2023-06-04T11:12:15;101899.34;;;24.27;22.42
77450;BME280;66536;53.150;18.172;2023-06-04T11:14:54;101898.95;;;24.33;21.97
77450;BME280;66536;53.150;18.172;2023-06-04T11:17:21;101898.20;;;24.36;21.79
77450;BME280;66536;53.150;18.172;2023-06-04T11:19:48;101898.84;;;24.38;21.95
77450;BME280;66536;53.150;18.172;2023-06-04T11:22:15;101900.89;;;24.47;22.12
77450;BME280;66536;53.150;18.172;2023-06-04T11:24:41;101897.13;;;24.64;22.01
77450;BME280;66536;53.150;18.172;2023-06-04T11:27:08;101896.11;;;24.78;21.99
77450;BME280;66536;53.150;18.172;2023-06-04T11:29:36;101891.86;;;24.95;21.86
77450;BME280;66536;53.150;18.172;2023-06-04T11:32:03;101890.48;;;25.07;21.64
77450;BME280;66536;53.150;18.172;2023-06-04T11:34:30;101892.27;;;25.10;21.48
77450;BME280;66536;53.150;18.172;2023-06-04T11:37:08;101885.14;;;25.12;21.40
77450;BME280;66536;53.150;18.172;2023-06-04T11:39:36;101888.66;;;25.18;21.26
77450;BME280;66536;53.150;18.172;2023-06-04T11:42:06;101884.45;;;25.22;21.05
77450;BME280;66536;53.150;18.172;2023-06-04T11:44:34;101882.19;;;25.10;20.95
77450;BME280;66536;53.150;18.172;2023-06-04T11:47:01;101881.84;;;25.03;21.20
77450;BME280;66536;53.150;18.172;2023-06-04T11:49:31;101882.12;;;25.12;21.36
77450;BME280;66536;53.150;18.172;2023-06-04T11:51:58;101879.98;;;25.23;21.20
77450;BME280;66536;53.150;18.172;2023-06-04T11:54:24;101877.00;;;25.26;20.83
77450;BME280;66536;53.150;18.172;2023-06-04T11:56:52;101874.20;;;25.17;21.17
77450;BME280;66536;53.150;18.172;2023-06-04T11:59:19;101876.20;;;25.19;21.35
77450;BME280;66536;53.150;18.172;2023-06-04T12:01:47;101873.17;;;25.28;21.14
77450;BME280;66536;53.150;18.172;2023-06-04T12:04:16;101869.15;;;25.35;20.80
77450;BME280;66536;53.150;18.172;2023-06-04T12:06:53;101870.44;;;25.25;20.77
77450;BME280;66536;53.150;18.172;2023-06-04T12:09:21;101864.80;;;25.11;21.06
77450;BME280;66536;53.150;18.172;2023-06-04T12:11:48;101867.42;;;25.05;21.32
77450;BME280;66536;53.150;18.172;2023-06-04T12:14:17;101870.08;;;25.16;21.15
77450;BME280;66536;53.150;18.172;2023-06-04T12:16:55;101867.77;;;25.30;21.05
77450;BME280;66536;53.150;18.172;2023-06-04T12:19:22;101864.27;;;25.40;20.94
77450;BME280;66536;53.150;18.172;2023-06-04T12:22:00;101862.77;;;25.57;21.20
77450;BME280;66536;53.150;18.172;2023-06-04T12:24:31;101864.45;;;25.74;20.72
77450;BME280;66536;53.150;18.172;2023-06-04T12:27:07;101860.59;;;25.83;20.88
77450;BME280;66536;53.150;18.172;2023-06-04T12:29:35;101858.09;;;25.90;20.74
77450;BME280;66536;53.150;18.172;2023-06-04T12:32:05;101864.58;;;25.94;20.65
77450;BME280;66536;53.150;18.172;2023-06-04T12:34:39;101860.64;;;25.90;20.70
77450;BME280;66536;53.150;18.172;2023-06-04T12:37:07;101864.23;;;25.84;20.44
77450;BME280;66536;53.150;18.172;2023-06-04T12:39:35;101856.05;;;25.81;20.43
77450;BME280;66536;53.150;18.172;2023-06-04T12:42:06;101858.64;;;25.75;20.69
77450;BME280;66536;53.150;18.172;2023-06-04T12:44:36;101854.11;;;25.71;20.42
77450;BME280;66536;53.150;18.172;2023-06-04T12:47:04;101853.41;;;25.59;20.50
77450;BME280;66536;53.150;18.172;2023-06-04T12:49:31;101858.06;;;25.54;20.60